Time;durP1;ratioP1;P1;durP2;ratioP2;P2;SDS_P1;SDS_P2;PMS_P1;PMS_P2;Temp;Humidity;BMP_temperature;BMP_pressure;BME280_temperature;BME280_humidity;BME280_pressure;Samples;Min_cycle;Max_cycle;Signal;HPM_P1;HPM_P2
2021/11/29 00:02:02;;;;;;;4.72;2.05;;;;;;;13.68;72.45;100680.09;1779587;81;21499;-58
2021/11/29 00:04:31;;;;;;;4.25;2.47;;;;;;;13.69;72.58;100684.47;1779277;80;21096;-59
2021/11/29 00:07:00;;;;;;;4.28;2.30;;;;;;;13.69;72.49;100686.64;1779502;79;21123;-59
2021/11/29 00:09:29;;;;;;;4.65;2.50;;;;;;;13.67;72.61;100687.66;1779624;81;21073;-59
2021/11/29 00:11:58;;;;;;;2.77;1.57;;;;;;;13.67;72.63;100681.89;1779641;81;21076;-59
2021/11/29 00:14:26;;;;;;;3.42;1.72;;;;;;;13.68;72.63;100674.80;1779606;80;21496;-59
2021/11/29 00:16:55;;;;;;;7.35;2.83;;;;;;;13.67;72.72;100669.98;1779607;81;21077;-59
2021/11/29 00:19:24;;;;;;;3.92;2.67;;;;;;;13.68;72.66;100680.09;1779526;80;21120;-59
2021/11/29 00:21:53;;;;;;;3.22;2.15;;;;;;;13.68;72.80;100678.77;1779685;81;21111;-59
2021/11/29 00:24:21;;;;;;;7.45;2.42;;;;;;;13.69;72.75;100675.20;1779606;81;21065;-59
2021/11/29 00:26:50;;;;;;;4.45;2.00;;;;;;;13.67;72.60;100675.28;1779682;81;21072;-58
2021/11/29 00:29:19;;;;;;;5.70;2.67;;;;;;;13.68;72.50;100677.45;1779727;81;21146;-59
2021/11/29 00:31:48;;;;;;;7.97;2.58;;;;;;;13.66;72.23;100674.03;1779583;81;21562;-58
2021/11/29 00:34:17;;;;;;;6.00;2.62;;;;;;;13.62;72.25;100683.92;1779550;81;21218;-58
2021/11/29 00:36:46;;;;;;;6.70;2.80;;;;;;;13.63;72.30;100679.48;1779579;81;21495;-58
2021/11/29 00:39:17;;;;;;;3.87;2.35;;;;;;;13.62;72.16;100678.63;1779660;81;21041;-58
2021/11/29 00:41:46;;;;;;;5.03;2.30;;;;;;;13.60;72.04;100685.80;1784259;79;21080;-59
2021/11/29 00:44:15;;;;;;;5.15;2.40;;;;;;;13.56;72.00;100675.47;1821114;79;21514;-58
2021/11/29 00:46:44;;;;;;;4.72;2.47;;;;;;;13.54;72.06;100683.92;1821036;79;21603;-58
2021/11/29 00:49:12;;;;;;;4.17;2.47;;;;;;;13.53;72.12;100676.95;1821164;79;21059;-58
2021/11/29 00:51:41;;;;;;;7.60;2.33;;;;;;;13.50;72.01;100673.53;1821383;79;21526;-58
2021/11/29 00:54:10;;;;;;;6.33;2.65;;;;;;;13.50;71.94;100681.46;1821162;79;21212;-58
2021/11/29 00:56:39;;;;;;;5.95;2.20;;;;;;;13.47;72.01;100685.58;1821177;79;21056;-58
2021/11/29 00:59:08;;;;;;;5.92;2.42;;;;;;;13.46;72.00;100674.63;1821032;79;21088;-59
2021/11/29 01:01:38;;;;;;;7.17;2.75;;;;;;;13.47;71.89;100681.61;1821154;77;21479;-59
2021/11/29 01:04:06;;;;;;;3.25;2.40;;;;;;;13.45;71.85;100692.74;1821154;79;21510;-59
2021/11/29 01:06:35;;;;;;;3.12;2.08;;;;;;;13.47;71.86;100700.12;1821124;79;21157;-58
2021/11/29 01:09:05;;;;;;;7.53;2.50;;;;;;;13.48;71.70;100692.59;1821204;79;21177;-58
2021/11/29 01:11:34;;;;;;;4.78;2.12;;;;;;;13.48;71.60;100705.82;1821037;79;21631;-59
2021/11/29 01:14:04;;;;;;;7.92;3.20;;;;;;;13.45;71.62;100700.68;1821053;79;21143;-59
2021/11/29 01:16:33;;;;;;;6.72;2.65;;;;;;;13.45;71.52;100707.30;1821191;79;21495;-59
2021/11/29 01:19:02;;;;;;;7.28;2.65;;;;;;;13.42;71.42;100719.34;1821184;79;21499;-59
2021/11/29 01:21:31;;;;;;;7.60;2.92;;;;;;;13.39;71.61;100721.28;1821162;79;21463;-58
2021/11/29 01:24:00;;;;;;;6.37;2.80;;;;;;;13.40;71.67;100717.72;1821104;79;21134;-59
2021/11/29 01:26:29;;;;;;;4.95;2.22;;;;;;;13.38;71.73;100719.12;1821208;79;21071;-59
2021/11/29 01:28:57;;;;;;;4.92;2.60;;;;;;;13.40;71.72;100727.83;1821170;79;21084;-58
2021/11/29 01:31:26;;;;;;;8.80;2.52;;;;;;;13.38;71.58;100734.98;1821138;79;21092;-58
2021/11/29 01:33:55;;;;;;;7.87;3.08;;;;;;;13.38;71.74;100732.81;1821150;79;21183;-58
2021/11/29 01:36:24;;;;;;;5.97;2.60;;;;;;;13.39;71.78;100734.06;1821147;79;21115;-59
2021/11/29 01:38:53;;;;;;;8.23;2.77;;;;;;;13.41;71.80;100725.58;1821036;79;21154;-59
2021/11/29 01:41:22;;;;;;;4.50;2.83;;;;;;;13.41;71.91;100708.39;1821265;77;21032;-59
2021/11/29 01:43:51;;;;;;;4.40;2.45;;;;;;;13.46;71.96;100723.56;1821231;79;21075;-58
2021/11/29 01:46:20;;;;;;;7.47;2.77;;;;;;;13.49;71.78;100728.67;1821131;79;21068;-58
2021/11/29 01:48:50;;;;;;;7.30;2.75;;;;;;;13.48;71.77;100732.27;1821155;79;21498;-59
2021/11/29 01:51:18;;;;;;;7.92;3.10;;;;;;;13.47;71.83;100730.55;1821003;79;21151;-59
2021/11/29 01:53:47;;;;;;;4.22;2.22;;;;;;;13.47;71.76;100727.91;1821116;79;21514;-59
2021/11/29 01:56:16;;;;;;;6.40;2.85;;;;;;;13.48;71.75;100728.30;1821146;79;21088;-58
2021/11/29 01:58:45;;;;;;;6.97;3.00;;;;;;;13.51;71.82;100732.09;1821151;79;21208;-58
2021/11/29 02:01:17;;;;;;;8.75;2.80;;;;;;;13.56;71.86;100727.06;1821123;79;21162;-59
2021/11/29 02:03:48;;;;;;;7.72;2.50;;;;;;;13.59;71.96;100733.48;1821037;79;21072;-59
2021/11/29 02:06:17;;;;;;;6.58;3.17;;;;;;;13.58;71.79;100735.30;1821089;78;21072;-59
2021/11/29 02:08:46;;;;;;;8.25;2.55;;;;;;;13.59;71.75;100741.43;1821254;79;21146;-58
2021/11/29 02:11:14;;;;;;;6.25;2.70;;;;;;;13.59;71.79;100738.78;1821116;79;21570;-58
2021/11/29 02:13:45;;;;;;;8.48;2.98;;;;;;;13.59;71.95;100729.52;1821107;79;21153;-59
2021/11/29 02:16:33;;;;;;;9.80;3.15;;;;;;;13.63;72.07;100735.03;1802363;78;21218;-58
2021/11/29 02:19:03;;;;;;;6.20;3.15;;;;;;;13.61;71.93;100735.59;1802397;79;21063;-59
2021/11/29 02:21:33;;;;;;;10.98;3.12;;;;;;;13.60;71.92;100735.22;1802516;80;21063;-59
2021/11/29 02:24:05;;;;;;;12.55;3.45;;;;;;;13.57;71.92;100731.40;1802434;80;21035;-58
2021/11/29 02:26:36;;;;;;;6.45;3.02;;;;;;;13.53;71.94;100723.23;1802392;79;21454;-64
2021/11/29 02:29:08;;;;;;;8.68;2.60;;;;;;;13.51;72.01;100732.09;1802427;80;21158;-58
2021/11/29 02:31:40;;;;;;;10.38;3.30;;;;;;;13.48;72.01;100728.30;1802475;80;21060;-61
2021/11/29 02:34:12;;;;;;;6.03;2.70;;;;;;;13.47;72.01;100738.48;1802409;79;21099;-60
2021/11/29 02:36:41;;;;;;;11.00;3.17;;;;;;;13.46;72.12;100738.55;1802635;79;21474;-62
2021/11/29 02:39:12;;;;;;;7.35;3.30;;;;;;;13.46;72.26;100734.59;1801672;80;21532;-59
2021/11/29 02:41:43;;;;;;;8.63;3.60;;;;;;;13.45;72.20;100733.73;1802556;80;21051;-59
2021/11/29 02:44:12;;;;;;;7.55;3.22;;;;;;;13.42;72.12;100736.53;1801430;80;21179;-59
2021/11/29 02:46:42;;;;;;;10.82;3.55;;;;;;;13.38;72.28;100731.02;1799919;80;21117;-54
2021/11/29 02:49:13;;;;;;;9.35;3.05;;;;;;;13.40;72.46;100726.98;1801913;80;21035;-57
2021/11/29 02:51:45;;;;;;;10.78;3.55;;;;;;;13.38;72.94;100739.43;1802678;78;21055;-57
2021/11/29 02:54:25;;;;;;;8.53;3.33;;;;;;;13.41;72.62;100733.52;1828183;78;21122;-58
2021/11/29 02:56:57;;;;;;;5.97;3.10;;;;;;;13.42;72.71;100740.98;1793642;80;21070;-56
2021/11/29 02:59:31;;;;;;;7.10;3.00;;;;;;;13.41;72.56;100740.12;1793694;80;21042;-55
2021/11/29 03:02:03;;;;;;;7.95;3.33;;;;;;;13.37;72.45;100731.09;1793721;79;21093;-56
2021/11/29 03:04:34;;;;;;;10.72;3.02;;;;;;;13.35;72.77;100727.67;1793698;80;21105;-55
2021/11/29 03:07:04;;;;;;;4.72;2.42;;;;;;;13.36;72.87;100729.40;1799552;80;21064;-54
2021/11/29 03:09:34;;;;;;;6.50;3.37;;;;;;;13.35;72.83;100724.55;1801399;80;21458;-55
2021/11/29 03:12:04;;;;;;;9.10;3.20;;;;;;;13.34;72.84;100730.80;1802475;80;21052;-56
2021/11/29 03:14:34;;;;;;;6.60;3.42;;;;;;;13.32;72.85;100722.09;1802395;80;21064;-55
2021/11/29 03:17:05;;;;;;;11.25;3.15;;;;;;;13.31;72.80;100727.81;1846817;77;21552;-55
2021/11/29 03:19:36;;;;;;;7.60;3.12;;;;;;;13.29;72.75;100731.45;1846816;78;21075;-55
2021/11/29 03:22:07;;;;;;;9.25;3.52;;;;;;;13.26;72.75;100727.63;1846827;77;21119;-55
2021/11/29 03:24:36;;;;;;;10.13;2.95;;;;;;;13.25;72.76;100721.49;1846864;78;21034;-55
2021/11/29 03:27:06;;;;;;;9.80;3.05;;;;;;;13.25;72.78;100717.53;1846752;78;21533;-55
2021/11/29 03:29:34;;;;;;;9.03;3.20;;;;;;;13.25;72.79;100714.04;1846545;77;21477;-56
2021/11/29 03:32:05;;;;;;;13.75;3.65;;;;;;;13.27;73.02;100706.41;1845560;78;21187;-59
2021/11/29 03:34:34;;;;;;;10.05;3.35;;;;;;;13.31;72.84;100712.42;1840820;78;21115;-58
2021/11/29 03:37:03;;;;;;;7.00;2.92;;;;;;;13.33;72.95;100722.45;1842830;78;21057;-56
2021/11/29 03:39:32;;;;;;;8.88;2.60;;;;;;;13.34;72.71;100730.80;1846432;78;21038;-58
2021/11/29 03:42:05;;;;;;;5.87;2.67;;;;;;;13.37;72.69;100723.16;1835986;78;21540;-56
2021/11/29 03:44:36;;;;;;;7.72;2.98;;;;;;;13.36;72.56;100735.53;1839425;78;21554;-56
2021/11/29 03:47:07;;;;;;;7.95;3.10;;;;;;;13.38;72.66;100741.59;1846606;78;21095;-56
2021/11/29 03:49:36;;;;;;;9.63;3.05;;;;;;;13.45;72.71;100732.42;1839693;78;21092;-50
2021/11/29 03:52:05;;;;;;;7.05;3.70;;;;;;;13.51;72.45;100744.47;1847206;78;21464;-50
2021/11/29 03:54:33;;;;;;;6.33;3.20;;;;;;;13.52;72.41;100736.94;1848434;78;21089;-52
2021/11/29 03:57:02;;;;;;;8.30;3.40;;;;;;;13.46;72.26;100739.44;1846910;78;21053;-49
2021/11/29 03:59:31;;;;;;;9.10;3.20;;;;;;;13.44;72.26;100739.95;1845449;76;21456;-47
2021/11/29 04:02:00;;;;;;;8.25;3.10;;;;;;;13.41;72.20;100744.09;1852941;76;21452;-49
2021/11/29 04:04:29;;;;;;;8.80;2.83;;;;;;;13.41;72.17;100746.74;1845033;77;21065;-51
2021/11/29 04:06:58;;;;;;;9.48;2.98;;;;;;;13.40;72.13;100748.98;1842864;77;21062;-49
2021/11/29 04:09:27;;;;;;;10.82;2.95;;;;;;;13.42;72.10;100744.47;1841928;76;21061;-53
2021/11/29 04:11:56;;;;;;;5.87;3.17;;;;;;;13.48;72.05;100745.94;1848307;78;21069;-50
2021/11/29 04:14:24;;;;;;;7.22;3.05;;;;;;;13.51;71.92;100745.31;1851164;77;21533;-51
2021/11/29 04:16:53;;;;;;;4.10;2.27;;;;;;;13.49;71.87;100747.19;1852863;77;21084;-53
2021/11/29 04:19:22;;;;;;;9.80;3.42;;;;;;;13.47;71.94;100739.80;1851877;77;21056;-54
2021/11/29 04:21:51;;;;;;;6.80;3.02;;;;;;;13.48;72.10;100745.50;1851900;77;21048;-54
2021/11/29 04:24:19;;;;;;;8.53;3.17;;;;;;;13.51;72.27;100749.29;1854636;76;21446;-54
2021/11/29 04:26:52;;;;;;;9.18;3.33;;;;;;;13.53;72.02;100745.72;1843932;76;21190;-54
2021/11/29 04:29:26;;;;;;;6.62;3.37;;;;;;;13.53;72.17;100747.05;1843527;78;21113;-53
2021/11/29 04:31:53;;;;;;;13.18;4.00;;;;;;;13.55;72.33;100741.20;1844309;76;21055;-53
2021/11/29 04:34:22;;;;;;;7.72;3.47;;;;;;;13.56;72.50;100735.84;1852303;75;21055;-53
2021/11/29 04:36:50;;;;;;;10.93;3.47;;;;;;;13.58;72.51;100745.03;1853781;76;21450;-51
2021/11/29 04:39:22;;;;;;;6.05;2.37;;;;;;;13.60;72.54;100746.64;1845571;76;21172;-97
2021/11/29 04:41:50;;;;;;;8.70;3.25;;;;;;;13.61;72.44;100758.08;1845122;78;21059;-51
2021/11/29 04:44:19;;;;;;;8.53;3.12;;;;;;;13.59;72.58;100748.05;1845022;78;21606;-50
2021/11/29 04:46:48;;;;;;;8.25;3.50;;;;;;;13.59;72.90;100733.48;1845098;78;21116;-51
2021/11/29 04:49:17;;;;;;;12.45;3.30;;;;;;;13.62;73.09;100730.70;1844260;78;21135;-52
2021/11/29 04:51:46;;;;;;;13.78;4.05;;;;;;;13.63;73.03;100728.42;1844282;78;21551;-51
2021/11/29 04:54:15;;;;;;;8.88;3.42;;;;;;;13.61;72.95;100723.68;1844283;77;21496;-52
2021/11/29 04:56:44;;;;;;;14.10;2.95;;;;;;;13.65;73.06;100722.61;1844199;78;21527;-54
2021/11/29 04:59:13;;;;;;;11.83;3.47;;;;;;;13.67;72.75;100720.73;1844252;77;21124;-53
2021/11/29 05:01:41;;;;;;;11.05;3.45;;;;;;;13.69;72.78;100729.45;1844380;76;21116;-54
2021/11/29 05:04:11;;;;;;;7.80;3.15;;;;;;;13.74;72.59;100721.25;1844276;78;21132;-54
2021/11/29 05:06:40;;;;;;;9.70;3.10;;;;;;;13.82;72.40;100720.40;1844301;78;21465;-54
2021/11/29 05:09:11;;;;;;;6.90;3.30;;;;;;;13.98;72.10;100719.09;1844211;78;21061;-53
2021/11/29 05:11:40;;;;;;;6.10;3.02;;;;;;;14.14;71.70;100725.27;1844715;78;21108;-52
2021/11/29 05:14:09;;;;;;;6.97;3.58;;;;;;;14.33;71.22;100721.63;1845769;78;21532;-52
2021/11/29 05:16:39;;;;;;;6.60;3.12;;;;;;;14.51;70.66;100722.41;1846318;77;21053;-53
2021/11/29 05:19:08;;;;;;;6.53;3.05;;;;;;;14.73;70.15;100718.11;1848394;78;21041;-52
2021/11/29 05:21:37;;;;;;;8.53;3.08;;;;;;;14.94;69.61;100723.52;1848127;78;21488;-52
2021/11/29 05:24:06;;;;;;;6.25;3.02;;;;;;;15.15;69.00;100725.39;1848282;78;21492;-52
2021/11/29 05:26:35;;;;;;;6.83;3.08;;;;;;;15.37;68.37;100717.02;1848413;78;21488;-52
2021/11/29 05:29:04;;;;;;;10.55;3.27;;;;;;;15.61;67.30;100728.45;1848384;77;21050;-55
2021/11/29 05:31:33;;;;;;;6.95;3.22;;;;;;;15.81;66.86;100711.34;1848298;78;21503;-55
2021/11/29 05:34:02;;;;;;;9.65;3.25;;;;;;;16.01;66.31;100692.85;1848288;78;21480;-56
2021/11/29 05:36:31;;;;;;;9.08;2.83;;;;;;;16.17;65.39;100690.91;1847570;77;21484;-55
2021/11/29 05:39:00;;;;;;;6.05;2.67;;;;;;;16.44;64.82;100697.24;1846886;78;21476;-51
2021/11/29 05:41:29;;;;;;;11.97;3.52;;;;;;;16.72;64.25;100693.64;1847096;76;21548;-52
2021/11/29 05:43:57;;;;;;;9.13;3.47;;;;;;;16.97;63.10;100671.15;1846897;76;21520;-53
2021/11/29 05:46:26;;;;;;;6.17;2.67;;;;;;;17.29;62.51;100679.24;1847104;78;21065;-54
2021/11/29 05:48:57;;;;;;;5.95;2.85;;;;;;;17.63;61.28;100681.77;1846831;78;21120;-55
2021/11/29 05:51:26;;;;;;;7.53;3.10;;;;;;;17.90;60.29;100673.66;1846922;78;21042;-53
2021/11/29 05:53:55;;;;;;;8.00;2.50;;;;;;;18.07;60.08;100673.79;1846911;76;21457;-54
2021/11/29 05:56:24;;;;;;;5.78;2.58;;;;;;;18.20;59.54;100671.09;1847120;78;21421;-53
2021/11/29 05:58:53;;;;;;;7.42;2.60;;;;;;;18.11;58.82;100693.08;1847133;78;21469;-53
2021/11/29 06:01:23;;;;;;;6.87;2.52;;;;;;;17.57;59.46;100692.83;1846859;78;21128;-55
2021/11/29 06:03:53;;;;;;;4.55;2.47;;;;;;;17.12;60.26;100669.75;1846869;78;21175;-54
2021/11/29 06:06:21;;;;;;;6.42;2.85;;;;;;;16.88;61.06;100669.11;1846989;78;21034;-53
2021/11/29 06:08:50;;;;;;;4.87;2.70;;;;;;;16.82;61.48;100681.45;1847838;78;21050;-53
2021/11/29 06:11:19;;;;;;;9.65;3.12;;;;;;;17.13;61.17;100690.06;1848384;78;21069;-53
2021/11/29 06:13:48;;;;;;;6.37;3.02;;;;;;;17.09;61.08;100686.75;1848389;78;21069;-53
2021/11/29 06:16:17;;;;;;;5.65;2.83;;;;;;;17.72;59.91;100687.79;1847030;78;21129;-51
2021/11/29 06:18:45;;;;;;;5.97;2.83;;;;;;;18.39;57.78;100671.97;1846860;77;21583;-51
2021/11/29 06:21:14;;;;;;;5.25;2.90;;;;;;;18.30;58.05;100671.30;1846878;78;21114;-52
2021/11/29 06:23:43;;;;;;;11.05;3.27;;;;;;;18.74;56.94;100683.64;1846880;77;21496;-51
2021/11/29 06:26:12;;;;;;;6.20;2.47;;;;;;;19.31;54.97;100684.73;1846912;78;21030;-53
2021/11/29 06:28:41;;;;;;;2.72;2.22;;;;;;;19.86;53.87;100689.82;1846734;78;21517;-53
2021/11/29 06:31:10;;;;;;;7.40;2.60;;;;;;;20.04;51.56;100670.98;1846892;78;21112;-50
2021/11/29 06:33:39;;;;;;;5.53;2.37;;;;;;;20.35;50.67;100687.23;1846888;78;21070;-52
2021/11/29 06:36:08;;;;;;;7.58;2.22;;;;;;;20.72;50.45;100694.11;1846878;78;21046;-51
2021/11/29 06:38:37;;;;;;;9.40;3.10;;;;;;;21.00;48.97;100688.64;1846871;78;21131;-53
2021/11/29 06:41:06;;;;;;;12.20;2.75;;;;;;;21.24;48.68;100688.40;1846814;78;21535;-55
2021/11/29 06:43:35;;;;;;;7.03;2.30;;;;;;;21.47;47.34;100687.82;1847050;78;21042;-53
2021/11/29 06:46:04;;;;;;;5.22;2.20;;;;;;;21.62;46.61;100675.42;1846840;77;21445;-53
2021/11/29 06:48:33;;;;;;;6.90;2.60;;;;;;;21.92;46.37;100668.70;1848247;78;21098;-54
2021/11/29 06:51:02;;;;;;;5.87;2.52;;;;;;;22.16;46.26;100668.86;1848633;78;21078;-54
2021/11/29 06:53:32;;;;;;;8.20;2.98;;;;;;;21.89;46.05;100659.61;1848554;78;21128;-54
2021/11/29 06:56:01;;;;;;;6.87;2.65;;;;;;;21.03;47.38;100626.83;1848622;76;21017;-52
2021/11/29 06:58:30;;;;;;;7.25;2.58;;;;;;;20.28;48.95;100613.84;1847316;78;21190;-52
2021/11/29 07:00:59;;;;;;;9.23;3.60;;;;;;;19.64;50.33;100632.73;1846821;78;21069;-52
2021/11/29 07:03:28;;;;;;;5.35;2.80;;;;;;;19.17;51.62;100625.27;1847002;77;21070;-52
2021/11/29 07:05:56;;;;;;;11.95;2.90;;;;;;;18.92;52.35;100621.44;1847095;78;21120;-51
2021/11/29 07:08:25;;;;;;;4.67;2.60;;;;;;;19.02;51.96;100617.11;1846886;77;21101;-51
2021/11/29 07:10:54;;;;;;;3.45;1.77;;;;;;;18.99;52.01;100612.00;1846964;78;21147;-51
2021/11/29 07:13:22;;;;;;;9.10;3.10;;;;;;;18.89;52.13;100606.03;1847180;78;21476;-49
2021/11/29 07:15:54;;;;;;;4.20;2.70;;;;;;;18.85;51.58;100612.58;1848184;78;21108;-50
2021/11/29 07:18:23;;;;;;;4.37;2.42;;;;;;;18.80;51.92;100609.86;1848550;77;21468;-52
2021/11/29 07:20:53;;;;;;;6.30;2.80;;;;;;;18.85;51.56;100595.70;1848260;78;21148;-50
2021/11/29 07:23:22;;;;;;;6.05;2.67;;;;;;;18.95;51.38;100622.55;1848339;78;21070;-52
2021/11/29 07:25:51;;;;;;;8.53;3.37;;;;;;;18.97;51.21;100605.94;1848121;78;21112;-52
2021/11/29 07:28:20;;;;;;;7.83;3.27;;;;;;;18.99;50.99;100622.18;1848361;77;21170;-51
2021/11/29 07:30:49;;;;;;;4.90;2.87;;;;;;;18.97;51.15;100626.78;1848300;78;21544;-52
2021/11/29 07:33:18;;;;;;;5.28;2.42;;;;;;;19.02;51.27;100630.45;1848248;78;21605;-52
2021/11/29 07:35:47;;;;;;;6.95;3.25;;;;;;;19.06;50.94;100626.58;1848145;78;21117;-50
2021/11/29 07:38:15;;;;;;;6.35;2.62;;;;;;;19.10;50.98;100626.70;1848437;78;21041;-51
2021/11/29 07:40:44;;;;;;;4.05;2.47;;;;;;;19.05;49.88;100600.84;1848353;78;21112;-48
2021/11/29 07:43:13;;;;;;;5.95;2.85;;;;;;;18.98;50.07;100615.63;1848423;78;21037;-52
2021/11/29 07:45:42;;;;;;;5.08;2.30;;;;;;;18.92;49.60;100604.09;1848415;76;21547;-51
2021/11/29 07:48:11;;;;;;;4.87;2.40;;;;;;;18.95;49.83;100569.19;1848341;78;21181;-49
2021/11/29 07:50:40;;;;;;;8.48;2.90;;;;;;;19.25;49.32;100548.09;1847582;78;21595;-52
2021/11/29 07:53:09;;;;;;;5.58;2.45;;;;;;;19.85;47.74;100559.39;1846842;78;21086;-51
2021/11/29 07:55:38;;;;;;;8.20;2.85;;;;;;;20.46;46.72;100541.95;1846835;77;21615;-53
2021/11/29 07:58:07;;;;;;;3.92;2.62;;;;;;;20.25;46.46;100564.62;1846734;78;21520;-49
2021/11/29 08:00:38;;;;;;;4.85;2.60;;;;;;;20.13;46.71;100553.13;1846798;78;21673;-49
2021/11/29 08:03:08;;;;;;;4.87;2.33;;;;;;;21.00;44.91;100534.73;1846868;77;21042;-51
2021/11/29 08:05:38;;;;;;;4.67;2.52;;;;;;;21.84;43.00;100530.52;1846834;77;21539;-50
2021/11/29 08:08:09;;;;;;;4.30;2.35;;;;;;;22.67;41.50;100526.97;1846827;76;21139;-48
2021/11/29 08:10:39;;;;;;;6.25;2.70;;;;;;;23.19;40.38;100525.74;1846877;77;21120;-49
2021/11/29 08:13:10;;;;;;;8.10;2.95;;;;;;;23.34;39.26;100560.52;1846819;78;21504;-54
2021/11/29 08:15:39;;;;;;;7.10;2.92;;;;;;;23.57;38.90;100534.61;1847397;78;21038;-53
2021/11/29 08:18:08;;;;;;;5.45;3.08;;;;;;;23.47;38.98;100542.22;1848262;78;21062;-54
2021/11/29 08:20:38;;;;;;;6.70;3.42;;;;;;;22.69;40.01;100532.20;1848472;77;21587;-54
2021/11/29 08:23:08;;;;;;;6.10;2.87;;;;;;;21.63;41.92;100539.13;1848278;78;21112;-50
2021/11/29 08:25:42;;;;;;;4.53;2.70;;;;;;;20.95;43.43;100543.64;1848168;78;21100;-54
2021/11/29 08:28:09;;;;;;;5.70;2.67;;;;;;;20.68;44.42;100528.98;1847868;76;21033;-55
2021/11/29 08:30:39;;;;;;;7.90;3.60;;;;;;;20.62;44.82;100541.55;1848313;78;21082;-53
2021/11/29 08:33:07;;;;;;;7.12;3.85;;;;;;;20.38;45.42;100502.95;1848271;78;21114;-55
2021/11/29 08:35:37;;;;;;;8.08;3.40;;;;;;;20.10;46.04;100481.20;1848444;78;21500;-55
2021/11/29 08:38:06;;;;;;;12.00;4.25;;;;;;;19.86;46.52;100489.44;1848262;78;21444;-55
2021/11/29 08:40:35;;;;;;;7.78;4.10;;;;;;;19.63;47.11;100484.13;1848126;78;21492;-55
2021/11/29 08:43:07;;;;;;;6.42;3.72;;;;;;;19.47;47.49;100493.84;1848284;78;21483;-55
2021/11/29 08:45:37;;;;;;;8.03;3.47;;;;;;;19.39;47.77;100495.45;1847933;75;21516;-55
2021/11/29 08:48:08;;;;;;;8.50;4.08;;;;;;;19.30;47.99;100526.40;1848255;78;21037;-54
2021/11/29 08:50:39;;;;;;;10.93;3.75;;;;;;;19.26;48.17;100493.76;1847891;78;21659;-56
2021/11/29 08:53:11;;;;;;;7.87;3.70;;;;;;;19.23;48.29;100465.97;1848218;78;21027;-55
2021/11/29 08:55:40;;;;;;;6.80;4.10;;;;;;;19.25;48.14;100469.85;1848461;78;21069;-50
2021/11/29 08:58:11;;;;;;;8.10;4.30;;;;;;;19.27;48.20;100504.81;1848372;78;21090;-51
2021/11/29 09:00:42;;;;;;;7.50;3.52;;;;;;;19.37;48.07;100471.55;1848363;78;21021;-50
2021/11/29 09:03:19;;;;;;;9.33;4.50;;;;;;;19.36;48.08;100452.48;1848100;77;21113;-53
2021/11/29 09:05:50;;;;;;;7.65;3.85;;;;;;;19.40;48.19;100461.09;1850958;76;21449;-52
2021/11/29 09:08:19;;;;;;;6.42;3.80;;;;;;;19.38;48.23;100417.16;1848259;78;21123;-52
2021/11/29 09:10:49;;;;;;;9.08;4.37;;;;;;;19.61;47.66;100420.64;1848223;78;21114;-53
2021/11/29 09:13:19;;;;;;;8.75;3.98;;;;;;;20.33;46.00;100409.78;1847919;78;21045;-56
2021/11/29 09:15:49;;;;;;;5.92;4.22;;;;;;;20.77;44.78;100374.36;1848217;78;21037;-53
2021/11/29 09:18:18;;;;;;;11.10;4.45;;;;;;;21.23;43.98;100381.95;1848330;78;21041;-54
2021/11/29 09:20:46;;;;;;;9.88;4.30;;;;;;;21.52;42.86;100330.63;1848343;77;21144;-55
2021/11/29 09:23:15;;;;;;;10.10;4.85;;;;;;;21.68;42.61;100346.66;1848020;78;21026;-53
2021/11/29 09:25:44;;;;;;;9.98;4.15;;;;;;;21.95;42.27;100344.09;1848219;78;21086;-50
2021/11/29 09:28:15;;;;;;;8.00;4.70;;;;;;;22.00;41.89;100356.22;1848209;78;21602;-55
2021/11/29 09:30:46;;;;;;;8.23;4.10;;;;;;;21.85;41.93;100353.13;1848195;78;21105;-55
2021/11/29 09:33:16;;;;;;;9.83;4.25;;;;;;;21.53;42.75;100352.43;1848160;78;21078;-56
2021/11/29 09:35:45;;;;;;;10.50;4.35;;;;;;;21.14;43.46;100365.73;1848248;78;21189;-54
2021/11/29 09:38:14;;;;;;;8.65;4.28;;;;;;;20.97;43.77;100361.89;1848244;78;21093;-55
2021/11/29 09:40:44;;;;;;;7.37;3.75;;;;;;;21.05;43.70;100339.80;1847116;78;21053;-56
2021/11/29 09:43:15;;;;;;;8.03;4.05;;;;;;;21.16;43.66;100339.67;1849565;76;21116;-55
2021/11/29 09:45:46;;;;;;;10.00;4.40;;;;;;;20.78;44.47;100341.75;1829462;78;21124;-55
2021/11/29 09:48:16;;;;;;;6.92;4.00;;;;;;;20.41;45.19;100347.12;1846704;78;21055;-55
2021/11/29 09:50:48;;;;;;;9.40;4.35;;;;;;;20.24;45.56;100324.52;1846504;78;21546;-55
2021/11/29 09:53:19;;;;;;;7.25;3.55;;;;;;;20.27;45.66;100334.12;1876112;76;21404;-54
2021/11/29 09:55:48;;;;;;;8.73;4.50;;;;;;;20.51;45.30;100318.23;1852349;76;21141;-52
2021/11/29 09:58:17;;;;;;;8.20;4.87;;;;;;;20.72;44.68;100354.34;1847531;78;21484;-54
2021/11/29 10:00:49;;;;;;;8.00;5.28;;;;;;;20.48;45.30;100339.92;1848286;78;21512;-55
2021/11/29 10:03:18;;;;;;;8.85;4.78;;;;;;;20.24;45.77;100345.06;1848429;76;21547;-56
2021/11/29 10:05:48;;;;;;;10.28;4.15;;;;;;;20.20;45.88;100371.71;1848307;77;21549;-56
2021/11/29 10:08:25;;;;;;;7.42;4.22;;;;;;;20.21;45.92;100344.86;1848276;78;21125;-53
2021/11/29 10:11:06;;;;;;;8.53;4.47;;;;;;;20.30;45.61;100342.36;1847816;78;21121;-53
2021/11/29 10:13:50;;;;;;;6.70;4.25;;;;;;;20.63;45.23;100338.60;1847903;78;21143;-52
2021/11/29 10:16:39;;;;;;;9.05;4.95;;;;;;;20.76;45.01;100328.50;1847448;78;21104;-53
2021/11/29 10:19:23;;;;;;;6.45;4.78;;;;;;;20.54;44.81;100345.56;1848156;76;21049;-52
2021/11/29 10:21:52;;;;;;;11.35;5.67;;;;;;;20.31;45.34;100352.92;1850650;76;21076;-51
2021/11/29 10:24:22;;;;;;;15.45;4.83;;;;;;;20.09;45.63;100337.04;1854039;76;21068;-50
2021/11/29 10:26:54;;;;;;;9.90;5.30;;;;;;;20.08;45.77;100346.02;1847203;77;21027;-52
2021/11/29 10:29:25;;;;;;;8.03;4.30;;;;;;;20.54;44.78;100379.49;1847258;76;21031;-52
2021/11/29 10:31:56;;;;;;;16.32;5.17;;;;;;;20.88;43.85;100364.52;1847185;78;21104;-57
2021/11/29 10:34:29;;;;;;;12.05;4.85;;;;;;;21.19;43.27;100360.83;1848202;78;21582;-59
2021/11/29 10:37:12;;;;;;;9.00;5.15;;;;;;;21.51;42.67;100338.34;1846914;78;21644;-52
2021/11/29 10:39:42;;;;;;;14.15;5.17;;;;;;;21.91;42.27;100329.77;1847900;76;21078;-60
2021/11/29 10:42:15;;;;;;;11.55;5.20;;;;;;;22.08;41.47;100325.03;1848344;78;21143;-59
2021/11/29 10:44:50;;;;;;;13.85;5.25;;;;;;;22.14;40.97;100343.70;1848350;78;21061;-58
2021/11/29 10:47:20;;;;;;;15.45;6.00;;;;;;;22.04;40.77;100328.99;1847897;78;21465;-58
2021/11/29 10:49:52;;;;;;;11.22;5.20;;;;;;;21.91;40.68;100321.26;1847661;77;21033;-58
2021/11/29 10:52:23;;;;;;;11.70;5.30;;;;;;;21.88;40.96;100314.00;1848185;78;21049;-57
2021/11/29 10:54:53;;;;;;;15.93;4.83;;;;;;;21.94;40.75;100312.91;1848615;76;21463;-57
2021/11/29 10:57:24;;;;;;;8.60;4.72;;;;;;;21.87;40.53;100305.09;1848186;78;21037;-57
2021/11/29 10:59:54;;;;;;;13.10;4.58;;;;;;;21.88;40.61;100308.63;1846650;78;21084;-56
2021/11/29 11:02:30;;;;;;;25.65;6.33;;;;;;;21.75;40.83;100315.63;1839228;78;21108;-55
2021/11/29 11:05:06;;;;;;;9.73;4.83;;;;;;;21.30;41.29;100298.27;1842230;78;21124;-55
2021/11/29 11:07:37;;;;;;;7.95;4.60;;;;;;;20.90;42.30;100303.70;1847888;78;21168;-56
2021/11/29 11:10:14;;;;;;;8.18;4.83;;;;;;;20.56;42.93;100270.05;1846611;78;21076;-58
2021/11/29 11:12:42;;;;;;;9.08;4.53;;;;;;;20.31;43.65;100314.16;1846319;77;21026;-60
2021/11/29 11:15:14;;;;;;;10.30;4.62;;;;;;;20.09;44.08;100347.23;1846870;78;21473;-59
2021/11/29 11:17:44;;;;;;;9.38;4.10;;;;;;;20.03;44.43;100300.50;1846988;77;21818;-58
2021/11/29 11:20:14;;;;;;;10.40;4.67;;;;;;;20.36;43.73;100309.27;1849214;75;21135;-57
2021/11/29 11:22:49;;;;;;;6.35;4.17;;;;;;;20.69;43.06;100296.59;1833995;77;21152;-58
2021/11/29 11:25:20;;;;;;;10.53;5.22;;;;;;;20.45;43.36;100300.91;1829231;78;21027;-57
2021/11/29 11:27:58;;;;;;;9.18;3.80;;;;;;;20.13;44.10;100305.89;1819735;79;21031;-60
2021/11/29 11:30:30;;;;;;;15.50;5.55;;;;;;;19.93;44.51;100302.25;1828240;78;21026;-58
2021/11/29 11:33:02;;;;;;;8.65;4.70;;;;;;;19.97;44.25;100341.09;1833425;77;21128;-58
2021/11/29 11:35:37;;;;;;;17.67;5.15;;;;;;;20.20;43.72;100266.12;1833362;78;21089;-57
2021/11/29 11:38:09;;;;;;;11.22;4.60;;;;;;;20.43;44.36;100265.44;1830779;78;21126;-56